createdAt,value
2017-08-04T00:00:02.338Z,0
2017-08-04T00:00:24.029Z,0
2017-08-04T00:00:45.663Z,0
2017-08-04T00:01:07.296Z,0
2017-08-04T00:01:28.990Z,0
2017-08-04T00:01:50.587Z,0
2017-08-04T00:02:12.068Z,0
2017-08-04T00:02:33.562Z,0
2017-08-04T00:02:55.055Z,0
2017-08-04T00:03:16.632Z,0
2017-08-04T00:03:38.154Z,0
2017-08-04T00:03:59.614Z,0
2017-08-04T00:04:21.207Z,0
2017-08-04T00:04:42.724Z,0
2017-08-04T00:05:04.418Z,0
2017-08-04T00:05:26.102Z,0
2017-08-04T00:05:47.815Z,0
2017-08-04T00:06:09.474Z,0
2017-08-04T00:06:31.126Z,0
2017-08-04T00:06:52.707Z,0
2017-08-04T00:07:14.383Z,0
2017-08-04T00:07:36.003Z,0
2017-08-04T00:07:57.573Z,0
2017-08-04T00:08:19.115Z,0
2017-08-04T00:08:40.754Z,0
2017-08-04T00:09:02.420Z,0
2017-08-04T00:09:24.041Z,0
2017-08-04T00:09:45.694Z,0
2017-08-04T00:10:07.411Z,0
2017-08-04T00:10:29.022Z,0
2017-08-04T00:10:50.639Z,0
2017-08-04T00:11:12.283Z,0
2017-08-04T00:11:33.914Z,0
2017-08-04T00:11:55.520Z,0
2017-08-04T00:12:17.191Z,0
2017-08-04T00:12:38.594Z,0
2017-08-04T00:13:00.108Z,0
2017-08-04T00:13:21.636Z,0
2017-08-04T00:13:43.181Z,0
2017-08-04T00:14:04.811Z,0
2017-08-04T00:14:26.411Z,0
2017-08-04T00:14:48.061Z,0
2017-08-04T00:15:09.711Z,0
2017-08-04T00:15:31.398Z,0
2017-08-04T00:15:53.039Z,0
2017-08-04T00:16:14.681Z,0
2017-08-04T00:16:36.352Z,0
2017-08-04T00:16:57.974Z,0
2017-08-04T00:17:19.566Z,0
2017-08-04T00:17:41.188Z,0
2017-08-04T00:18:02.829Z,0
2017-08-04T00:18:24.321Z,0
2017-08-04T00:18:45.786Z,0
2017-08-04T00:19:07.275Z,0
2017-08-04T00:19:28.868Z,0
2017-08-04T00:19:50.450Z,0
2017-08-04T00:20:12.023Z,0
2017-08-04T00:20:33.590Z,0
2017-08-04T00:20:55.134Z,0
2017-08-04T00:21:16.695Z,0
2017-08-04T00:21:38.345Z,0
2017-08-04T00:21:59.925Z,0
2017-08-04T00:22:21.543Z,0
2017-08-04T00:22:43.144Z,0
2017-08-04T00:23:04.648Z,0
2017-08-04T00:23:26.239Z,0
2017-08-04T00:23:47.884Z,0
2017-08-04T00:24:09.510Z,0
2017-08-04T00:24:31.094Z,0
2017-08-04T00:24:52.778Z,0
2017-08-04T00:25:14.417Z,0
2017-08-04T00:25:35.860Z,0
2017-08-04T00:25:57.314Z,0
2017-08-04T00:26:18.740Z,0
2017-08-04T00:26:40.287Z,0
2017-08-04T00:27:01.909Z,0
2017-08-04T00:27:23.540Z,0
2017-08-04T00:27:45.169Z,0
2017-08-04T00:28:06.813Z,0
2017-08-04T00:28:28.494Z,0
2017-08-04T00:28:50.143Z,0
2017-08-04T00:29:11.801Z,0
2017-08-04T00:29:33.508Z,0
2017-08-04T00:29:55.153Z,0
2017-08-04T00:30:16.771Z,0
2017-08-04T00:30:38.393Z,0
2017-08-04T00:31:00.015Z,0
2017-08-04T00:31:21.650Z,0
2017-08-04T00:31:43.287Z,0
2017-08-04T00:32:04.940Z,0
2017-08-04T00:32:26.480Z,0
2017-08-04T00:32:48.132Z,0
2017-08-04T00:33:09.828Z,0
2017-08-04T00:33:31.524Z,0
2017-08-04T00:33:53.128Z,0
2017-08-04T00:34:14.766Z,0
2017-08-04T00:34:36.476Z,0
2017-08-04T00:34:58.063Z,0
2017-08-04T00:35:19.645Z,0
2017-08-04T00:35:41.133Z,0
2017-08-04T00:36:02.738Z,0
2017-08-04T00:36:24.440Z,0
2017-08-04T00:36:46.139Z,0
2017-08-04T00:37:07.841Z,0
2017-08-04T00:37:29.574Z,0
2017-08-04T00:37:51.095Z,0
2017-08-04T00:38:12.682Z,0
2017-08-04T00:38:34.207Z,0
2017-08-04T00:38:55.767Z,0
2017-08-04T00:39:17.369Z,0
2017-08-04T00:39:38.864Z,0
2017-08-04T00:40:00.475Z,0
2017-08-04T00:40:22.044Z,0
2017-08-04T00:40:43.545Z,0
2017-08-04T00:41:05.243Z,0
2017-08-04T00:41:26.916Z,0
2017-08-04T00:41:48.392Z,0
2017-08-04T00:42:09.803Z,0
2017-08-04T00:42:31.491Z,0
2017-08-04T00:42:52.998Z,0
2017-08-04T00:43:14.555Z,0
2017-08-04T00:43:36.226Z,0
2017-08-04T00:43:57.988Z,0
2017-08-04T00:44:19.775Z,0
2017-08-04T00:44:41.422Z,0
2017-08-04T00:45:03.137Z,0
2017-08-04T00:45:24.711Z,0
2017-08-04T00:45:46.257Z,0
2017-08-04T00:46:07.926Z,0
2017-08-04T00:46:29.554Z,0
2017-08-04T00:46:51.231Z,0
2017-08-04T00:47:12.891Z,0
2017-08-04T00:47:34.487Z,0
2017-08-04T00:47:56.112Z,0
2017-08-04T00:48:17.749Z,0
2017-08-04T00:48:39.446Z,0
2017-08-04T00:49:01.112Z,0
2017-08-04T00:49:22.710Z,0
2017-08-04T00:49:44.297Z,0
2017-08-04T00:50:05.972Z,0
2017-08-04T00:50:27.722Z,0
2017-08-04T00:50:49.391Z,0
2017-08-04T00:51:10.991Z,0
2017-08-04T00:51:32.634Z,0
2017-08-04T00:51:54.323Z,0
2017-08-04T00:52:15.971Z,0
2017-08-04T00:52:37.588Z,0
2017-08-04T00:52:59.175Z,0
2017-08-04T00:53:20.649Z,0
2017-08-04T00:53:42.078Z,0
2017-08-04T00:54:03.709Z,0
2017-08-04T00:54:25.267Z,0
2017-08-04T00:54:46.687Z,0
2017-08-04T00:55:08.279Z,0
2017-08-04T00:55:29.937Z,0
2017-08-04T00:55:51.427Z,0
2017-08-04T00:56:12.850Z,0
2017-08-04T00:56:34.475Z,0
2017-08-04T00:56:56.063Z,0
2017-08-04T00:57:17.651Z,0
2017-08-04T00:57:39.296Z,0
2017-08-04T00:58:00.901Z,0
2017-08-04T00:58:22.462Z,0
2017-08-04T00:58:44.013Z,0
2017-08-04T00:59:05.551Z,0
2017-08-04T00:59:26.991Z,0
2017-08-04T00:59:48.433Z,0
2017-08-04T01:00:09.979Z,0
2017-08-04T01:00:31.522Z,0
2017-08-04T01:00:53.080Z,0
2017-08-04T01:01:14.645Z,0
2017-08-04T01:01:36.286Z,0
2017-08-04T01:01:57.794Z,0
2017-08-04T01:02:19.228Z,0
2017-08-04T01:02:40.715Z,0
2017-08-04T01:03:02.369Z,0
2017-08-04T01:03:24.059Z,0
2017-08-04T01:03:45.574Z,0
2017-08-04T01:04:06.998Z,0
2017-08-04T01:04:28.411Z,0
2017-08-04T01:04:49.945Z,0
2017-08-04T01:05:11.487Z,0
2017-08-04T01:05:33.024Z,0
2017-08-04T01:05:54.529Z,0
2017-08-04T01:06:15.948Z,0
2017-08-04T01:06:37.440Z,0
2017-08-04T01:06:58.869Z,0
2017-08-04T01:07:20.326Z,0
2017-08-04T01:07:41.990Z,0
2017-08-04T01:08:03.526Z,0
2017-08-04T01:08:24.973Z,0
2017-08-04T01:08:46.460Z,0
2017-08-04T01:09:07.995Z,0
2017-08-04T01:09:29.441Z,0
2017-08-04T01:09:50.833Z,0
2017-08-04T01:10:12.239Z,0
2017-08-04T01:10:33.742Z,0
2017-08-04T01:10:55.266Z,0
2017-08-04T01:11:16.824Z,0
2017-08-04T01:11:38.397Z,0
2017-08-04T01:11:59.931Z,0
2017-08-04T01:12:21.476Z,0
2017-08-04T01:12:42.982Z,0
2017-08-04T01:13:04.437Z,0
2017-08-04T01:13:25.913Z,0
2017-08-04T01:13:47.423Z,0
2017-08-04T01:14:08.901Z,0
2017-08-04T01:14:30.305Z,0
2017-08-04T01:14:51.905Z,0
2017-08-04T01:15:13.607Z,0
2017-08-04T01:15:35.349Z,0
2017-08-04T01:15:56.873Z,0
2017-08-04T01:16:18.360Z,0
2017-08-04T01:16:39.782Z,0
2017-08-04T01:17:01.220Z,0
2017-08-04T01:17:22.651Z,0
2017-08-04T01:17:44.054Z,0
2017-08-04T01:18:05.626Z,0
2017-08-04T01:18:27.132Z,0
2017-08-04T01:18:48.672Z,0
2017-08-04T01:19:10.161Z,0
2017-08-04T01:19:31.688Z,0
2017-08-04T01:19:53.121Z,0
2017-08-04T01:20:14.567Z,0
2017-08-04T01:20:36.034Z,0
2017-08-04T01:20:57.744Z,0
2017-08-04T01:21:19.193Z,0
2017-08-04T01:21:40.609Z,0
2017-08-04T01:22:02.118Z,0
2017-08-04T01:22:23.635Z,0
2017-08-04T01:22:45.274Z,0
2017-08-04T01:23:06.779Z,0
2017-08-04T01:23:28.344Z,0
2017-08-04T01:23:49.840Z,0
2017-08-04T01:24:11.356Z,0
2017-08-04T01:24:32.821Z,0
2017-08-04T01:24:54.378Z,0
2017-08-04T01:25:15.859Z,0
2017-08-04T01:25:37.337Z,0
2017-08-04T01:25:58.911Z,0
2017-08-04T01:26:20.441Z,0
2017-08-04T01:26:41.978Z,0
2017-08-04T01:27:03.394Z,0
2017-08-04T01:27:25.021Z,0
2017-08-04T01:27:46.705Z,0
2017-08-04T01:28:08.277Z,0
2017-08-04T01:28:29.789Z,0
2017-08-04T01:28:51.300Z,0
2017-08-04T01:29:13.105Z,0
2017-08-04T01:29:34.659Z,0
2017-08-04T01:29:56.158Z,0
2017-08-04T01:30:17.703Z,0
2017-08-04T01:30:39.094Z,0
2017-08-04T01:31:00.630Z,0
2017-08-04T01:31:22.323Z,0
2017-08-04T01:31:44.046Z,0
2017-08-04T01:32:05.532Z,0
2017-08-04T01:32:26.976Z,0
2017-08-04T01:32:48.447Z,0
2017-08-04T01:33:10.064Z,0
2017-08-04T01:33:31.531Z,0
2017-08-04T01:33:52.933Z,0
2017-08-04T01:34:14.333Z,0
2017-08-04T01:34:35.811Z,0
2017-08-04T01:34:57.216Z,0
2017-08-04T01:35:18.775Z,0
2017-08-04T01:35:40.275Z,0
2017-08-04T01:36:01.699Z,0
2017-08-04T01:36:23.250Z,0
2017-08-04T01:36:44.765Z,0
2017-08-04T01:37:06.225Z,0
2017-08-04T01:37:27.797Z,0
2017-08-04T01:37:49.258Z,0
2017-08-04T01:38:10.650Z,0
2017-08-04T01:38:32.130Z,0
2017-08-04T01:38:53.608Z,0
2017-08-04T01:39:15.033Z,0
2017-08-04T01:39:36.602Z,0
2017-08-04T01:39:58.137Z,0
2017-08-04T01:40:19.639Z,0
2017-08-04T01:40:41.128Z,0
2017-08-04T01:41:02.719Z,0
2017-08-04T01:41:24.287Z,0
2017-08-04T01:41:45.766Z,0
2017-08-04T01:42:07.254Z,0
2017-08-04T01:42:28.752Z,0
2017-08-04T01:42:50.344Z,0
2017-08-04T01:43:11.901Z,0
2017-08-04T01:43:33.532Z,0
2017-08-04T01:43:55.181Z,0
2017-08-04T01:44:16.828Z,0
2017-08-04T01:44:38.488Z,0
2017-08-04T01:45:00.131Z,0
2017-08-04T01:45:21.726Z,0
2017-08-04T01:45:43.427Z,0
2017-08-04T01:46:05.157Z,0
2017-08-04T01:46:26.767Z,0
2017-08-04T01:46:48.468Z,0
2017-08-04T01:47:10.044Z,0
2017-08-04T01:47:31.743Z,0
2017-08-04T01:47:53.396Z,0
2017-08-04T01:48:14.966Z,0
2017-08-04T01:48:36.675Z,0
2017-08-04T01:48:58.237Z,0
2017-08-04T01:49:19.910Z,0
2017-08-04T01:49:41.624Z,0
2017-08-04T01:50:03.277Z,0
2017-08-04T01:50:24.991Z,0
2017-08-04T01:50:46.526Z,0
2017-08-04T01:51:08.257Z,0
2017-08-04T01:51:29.876Z,0
2017-08-04T01:51:51.514Z,0
2017-08-04T01:52:13.207Z,0
2017-08-04T01:52:34.868Z,0
2017-08-04T01:52:56.463Z,0
2017-08-04T01:53:18.171Z,0
2017-08-04T01:53:39.810Z,0
2017-08-04T01:54:01.412Z,0
2017-08-04T01:54:23.035Z,0
2017-08-04T01:54:44.705Z,0
2017-08-04T01:55:06.280Z,0
2017-08-04T01:55:27.922Z,0
2017-08-04T01:55:49.493Z,0
2017-08-04T01:56:11.036Z,0
2017-08-04T01:56:32.765Z,0
2017-08-04T01:56:54.432Z,0
2017-08-04T01:57:16.032Z,0
2017-08-04T01:57:37.655Z,0
2017-08-04T01:57:59.182Z,0
2017-08-04T01:58:20.827Z,0
2017-08-04T01:58:42.546Z,0
2017-08-04T01:59:04.036Z,0
2017-08-04T01:59:25.720Z,0
2017-08-04T01:59:47.521Z,0
2017-08-04T02:00:09.084Z,0
2017-08-04T02:00:30.527Z,0
2017-08-04T02:00:52.176Z,0
2017-08-04T02:01:13.806Z,0
2017-08-04T02:01:35.511Z,0
2017-08-04T02:01:57.163Z,0
2017-08-04T02:02:18.809Z,0
2017-08-04T02:02:40.388Z,0
2017-08-04T02:03:01.957Z,0
2017-08-04T02:03:23.545Z,0
2017-08-04T02:03:44.985Z,0
2017-08-04T02:04:06.583Z,0
2017-08-04T02:04:28.107Z,0
2017-08-04T02:04:49.683Z,0
2017-08-04T02:05:11.263Z,0
2017-08-04T02:05:32.846Z,0
2017-08-04T02:05:54.375Z,0
2017-08-04T02:06:15.936Z,0
2017-08-04T02:06:37.567Z,0
2017-08-04T02:06:59.160Z,0
2017-08-04T02:07:20.727Z,0
2017-08-04T02:07:42.316Z,0
2017-08-04T02:08:04.044Z,0
2017-08-04T02:08:25.688Z,0
2017-08-04T02:08:47.246Z,0
2017-08-04T02:09:08.899Z,0
2017-08-04T02:09:30.508Z,0
2017-08-04T02:09:52.265Z,0
2017-08-04T02:10:13.961Z,0
2017-08-04T02:10:35.545Z,0
2017-08-04T02:10:57.189Z,0
2017-08-04T02:11:18.880Z,0
2017-08-04T02:11:40.531Z,0
2017-08-04T02:12:02.217Z,0
2017-08-04T02:12:23.702Z,0
2017-08-04T02:12:45.258Z,0
2017-08-04T02:13:06.670Z,0
2017-08-04T02:13:28.354Z,0
2017-08-04T02:13:49.872Z,0
2017-08-04T02:14:11.405Z,0
2017-08-04T02:14:32.990Z,0
2017-08-04T02:14:54.703Z,0
2017-08-04T02:15:16.321Z,0
2017-08-04T02:15:37.955Z,0
2017-08-04T02:15:59.494Z,0
2017-08-04T02:16:21.251Z,0
2017-08-04T02:16:42.873Z,0
2017-08-04T02:17:04.523Z,0
2017-08-04T02:17:26.198Z,0
2017-08-04T02:17:47.840Z,0
2017-08-04T02:18:09.544Z,0
2017-08-04T02:18:31.166Z,0
2017-08-04T02:18:52.819Z,0
2017-08-04T02:19:14.512Z,0
2017-08-04T02:19:36.187Z,0
2017-08-04T02:19:57.839Z,0
2017-08-04T02:20:19.529Z,0
2017-08-04T02:20:41.205Z,0
2017-08-04T02:21:02.853Z,0
2017-08-04T02:21:24.464Z,0
2017-08-04T02:21:46.090Z,0
2017-08-04T02:22:07.710Z,0
2017-08-04T02:22:29.425Z,0
2017-08-04T02:22:51.134Z,0
2017-08-04T02:23:12.785Z,0
2017-08-04T02:23:34.553Z,0
2017-08-04T02:23:56.288Z,0
2017-08-04T02:24:18.075Z,0
2017-08-04T02:24:39.725Z,0
2017-08-04T02:25:01.423Z,0
2017-08-04T02:25:23.100Z,0
2017-08-04T02:25:44.756Z,0
2017-08-04T02:26:06.354Z,0
2017-08-04T02:26:28.018Z,0
2017-08-04T02:26:49.671Z,0
2017-08-04T02:27:11.335Z,0
2017-08-04T02:27:33.040Z,0
2017-08-04T02:27:54.747Z,0
2017-08-04T02:28:16.440Z,0
2017-08-04T02:28:38.140Z,0
2017-08-04T02:28:59.777Z,0
2017-08-04T02:29:21.547Z,0
2017-08-04T02:29:43.615Z,0
2017-08-04T02:30:05.250Z,0
2017-08-04T02:30:27.106Z,0
2017-08-04T02:30:48.836Z,0
2017-08-04T02:31:10.551Z,0
2017-08-04T02:31:32.381Z,0
2017-08-04T02:31:54.066Z,0
2017-08-04T02:32:15.720Z,0
2017-08-04T02:32:37.443Z,0
2017-08-04T02:32:59.190Z,0
2017-08-04T02:33:20.923Z,0
2017-08-04T02:33:42.566Z,0
2017-08-04T02:34:04.178Z,0
2017-08-04T02:34:26.004Z,0
2017-08-04T02:34:47.651Z,0
2017-08-04T02:35:09.268Z,0
2017-08-04T02:35:31.106Z,0
2017-08-04T02:35:52.770Z,0
2017-08-04T02:36:14.566Z,0
2017-08-04T02:36:36.283Z,0
2017-08-04T02:36:57.975Z,0
2017-08-04T02:37:19.666Z,0
2017-08-04T02:37:41.355Z,0
2017-08-04T02:38:03.087Z,0
2017-08-04T02:38:24.700Z,0
2017-08-04T02:38:46.313Z,0
2017-08-04T02:39:07.950Z,0
2017-08-04T02:39:29.730Z,0
2017-08-04T02:39:51.401Z,0
2017-08-04T02:40:13.102Z,0
2017-08-04T02:40:34.904Z,0
2017-08-04T02:40:56.597Z,0
2017-08-04T02:41:18.418Z,0
2017-08-04T02:41:40.282Z,0
2017-08-04T02:42:01.962Z,0
2017-08-04T02:42:23.625Z,0
2017-08-04T02:42:45.268Z,0
2017-08-04T02:43:07.049Z,0
2017-08-04T02:43:28.697Z,0
2017-08-04T02:43:50.468Z,0
2017-08-04T02:44:12.050Z,0
2017-08-04T02:44:33.760Z,0
2017-08-04T02:44:55.447Z,0
2017-08-04T02:45:17.125Z,0
2017-08-04T02:45:38.902Z,0
2017-08-04T02:46:00.508Z,0
2017-08-04T02:46:22.189Z,0
2017-08-04T02:46:43.787Z,0
2017-08-04T02:47:05.484Z,0
2017-08-04T02:47:27.240Z,0
2017-08-04T02:47:48.948Z,0
2017-08-04T02:48:10.718Z,0
2017-08-04T02:48:32.410Z,0
2017-08-04T02:48:54.101Z,0
2017-08-04T02:49:15.763Z,0
2017-08-04T02:49:37.397Z,0
2017-08-04T02:49:59.032Z,0
2017-08-04T02:50:20.786Z,0
2017-08-04T02:50:42.501Z,0
2017-08-04T02:51:04.118Z,0
2017-08-04T02:51:25.837Z,0
2017-08-04T02:51:47.654Z,0
2017-08-04T02:52:09.278Z,0
2017-08-04T02:52:30.881Z,0
2017-08-04T02:52:52.571Z,0
2017-08-04T02:53:14.270Z,0
2017-08-04T02:53:36.033Z,0
2017-08-04T02:53:57.739Z,0
2017-08-04T02:54:19.620Z,0
2017-08-04T02:54:41.390Z,0
2017-08-04T02:55:03.138Z,0
2017-08-04T02:55:25.018Z,0
2017-08-04T02:55:47.036Z,0
2017-08-04T02:56:08.726Z,0
2017-08-04T02:56:30.509Z,0
2017-08-04T02:56:52.192Z,0
2017-08-04T02:57:13.908Z,0
2017-08-04T02:57:35.610Z,0
2017-08-04T02:57:57.277Z,0
2017-08-04T02:58:19.001Z,0
2017-08-04T02:58:40.903Z,0
2017-08-04T02:59:02.635Z,0
2017-08-04T02:59:24.272Z,0
2017-08-04T02:59:45.915Z,0
2017-08-04T03:00:07.556Z,0
2017-08-04T03:00:29.396Z,0
2017-08-04T03:00:51.076Z,0
2017-08-04T03:01:12.729Z,0
2017-08-04T03:01:34.391Z,0
2017-08-04T03:01:56.063Z,0
2017-08-04T03:02:17.776Z,0
2017-08-04T03:02:39.574Z,0
2017-08-04T03:03:01.280Z,0
2017-08-04T03:03:22.915Z,0
2017-08-04T03:03:44.574Z,0
2017-08-04T03:04:06.218Z,0
2017-08-04T03:04:27.911Z,0
2017-08-04T03:04:49.534Z,0
2017-08-04T03:05:11.225Z,0
2017-08-04T03:05:32.910Z,0
2017-08-04T03:05:54.655Z,0
2017-08-04T03:06:16.352Z,0
2017-08-04T03:06:38.057Z,0
2017-08-04T03:06:59.690Z,0
2017-08-04T03:07:21.445Z,0
2017-08-04T03:07:43.070Z,0
2017-08-04T03:08:04.887Z,0
2017-08-04T03:08:26.566Z,0
2017-08-04T03:08:48.232Z,0
2017-08-04T03:09:10.158Z,0
2017-08-04T03:09:31.775Z,0
2017-08-04T03:09:53.445Z,0
2017-08-04T03:10:15.159Z,0
2017-08-04T03:10:36.885Z,0
2017-08-04T03:10:58.597Z,0
2017-08-04T03:11:20.403Z,0
2017-08-04T03:11:42.377Z,0
2017-08-04T03:12:04.163Z,0
2017-08-04T03:12:25.865Z,0
2017-08-04T03:12:47.590Z,0
2017-08-04T03:13:09.318Z,0
2017-08-04T03:13:30.934Z,0
2017-08-04T03:13:52.636Z,0
2017-08-04T03:14:14.354Z,0
2017-08-04T03:14:36.123Z,0
2017-08-04T03:14:57.832Z,0
2017-08-04T03:15:19.714Z,0
2017-08-04T03:15:41.503Z,0
2017-08-04T03:16:03.179Z,0
2017-08-04T03:16:24.871Z,0
2017-08-04T03:16:46.518Z,0
2017-08-04T03:17:08.162Z,0
2017-08-04T03:17:29.890Z,0
2017-08-04T03:17:51.542Z,0
2017-08-04T03:18:13.263Z,0
2017-08-04T03:18:35.039Z,0
2017-08-04T03:18:56.750Z,0
2017-08-04T03:19:18.560Z,0
2017-08-04T03:19:40.245Z,0
2017-08-04T03:20:01.919Z,0
2017-08-04T03:20:23.626Z,0
2017-08-04T03:20:45.271Z,0
2017-08-04T03:21:07.009Z,0
2017-08-04T03:21:28.666Z,0
2017-08-04T03:21:50.358Z,0
2017-08-04T03:22:12.094Z,0
2017-08-04T03:22:33.710Z,0
2017-08-04T03:22:55.365Z,0
2017-08-04T03:23:17.071Z,0
2017-08-04T03:23:38.676Z,0
2017-08-04T03:24:00.345Z,0
2017-08-04T03:24:22.073Z,0
2017-08-04T03:24:43.761Z,0
2017-08-04T03:25:05.503Z,0
2017-08-04T03:25:27.166Z,0
2017-08-04T03:25:48.858Z,0
2017-08-04T03:26:10.580Z,0
2017-08-04T03:26:32.243Z,0
2017-08-04T03:26:53.929Z,0
2017-08-04T03:27:15.656Z,0
2017-08-04T03:27:37.355Z,0
2017-08-04T03:27:59.005Z,0
2017-08-04T03:28:20.732Z,0
2017-08-04T03:28:42.343Z,0
2017-08-04T03:29:04.052Z,0
2017-08-04T03:29:25.763Z,0
2017-08-04T03:29:47.451Z,0
2017-08-04T03:30:09.195Z,0
2017-08-04T03:30:30.906Z,0
2017-08-04T03:30:52.678Z,0
2017-08-04T03:31:14.258Z,0
2017-08-04T03:31:35.932Z,0
2017-08-04T03:31:57.652Z,0
2017-08-04T03:32:19.191Z,0
2017-08-04T03:32:40.816Z,0
2017-08-04T03:33:02.506Z,0
2017-08-04T03:33:24.167Z,0
2017-08-04T03:33:45.849Z,0
2017-08-04T03:34:07.519Z,0
2017-08-04T03:34:29.345Z,0
2017-08-04T03:34:50.986Z,0
2017-08-04T03:35:12.723Z,0
2017-08-04T03:35:34.455Z,0
2017-08-04T03:35:56.292Z,0
2017-08-04T03:36:18.176Z,0
2017-08-04T03:36:39.850Z,0
2017-08-04T03:37:01.544Z,0
2017-08-04T03:37:23.280Z,0
2017-08-04T03:37:44.972Z,0
2017-08-04T03:38:06.697Z,0
2017-08-04T03:38:28.585Z,0
2017-08-04T03:38:50.365Z,0
2017-08-04T03:39:13.512Z,0
2017-08-04T03:39:35.410Z,0
2017-08-04T03:39:57.178Z,0
2017-08-04T03:40:18.923Z,0
2017-08-04T03:40:40.730Z,0
2017-08-04T03:41:02.553Z,0
2017-08-04T03:41:24.228Z,0
2017-08-04T03:41:45.884Z,0
2017-08-04T03:42:07.749Z,0
2017-08-04T03:42:29.563Z,0
2017-08-04T03:42:51.384Z,0
2017-08-04T03:43:13.237Z,0
2017-08-04T03:43:34.926Z,0
2017-08-04T03:43:56.802Z,0
2017-08-04T03:44:18.505Z,4
2017-08-04T03:44:40.239Z,4
2017-08-04T03:45:02.030Z,4
2017-08-04T03:45:23.744Z,4
2017-08-04T03:45:45.451Z,0
2017-08-04T03:46:07.334Z,0
2017-08-04T03:46:29.057Z,0
2017-08-04T03:46:50.774Z,0
2017-08-04T03:47:12.437Z,0
2017-08-04T03:47:34.144Z,0
2017-08-04T03:47:55.779Z,0
2017-08-04T03:48:17.471Z,0
2017-08-04T03:48:39.189Z,0
2017-08-04T03:49:00.952Z,0
2017-08-04T03:49:22.681Z,0
2017-08-04T03:49:44.379Z,0
2017-08-04T03:50:06.111Z,4
2017-08-04T03:50:27.831Z,4
2017-08-04T03:50:49.509Z,4
2017-08-04T03:51:11.220Z,4
2017-08-04T03:51:32.937Z,0
2017-08-04T03:51:54.553Z,4
2017-08-04T03:52:16.252Z,4
2017-08-04T03:52:37.879Z,4
2017-08-04T03:52:59.617Z,4
2017-08-04T03:53:21.304Z,4
2017-08-04T03:53:43.059Z,8
2017-08-04T03:54:04.776Z,4
2017-08-04T03:54:26.427Z,4
2017-08-04T03:54:48.168Z,4
2017-08-04T03:55:09.852Z,8
2017-08-04T03:55:31.609Z,8
2017-08-04T03:55:53.246Z,8
2017-08-04T03:56:14.844Z,4
2017-08-04T03:56:36.572Z,4
2017-08-04T03:56:58.229Z,4
2017-08-04T03:57:19.891Z,8
2017-08-04T03:57:41.536Z,8
2017-08-04T03:58:03.279Z,8
2017-08-04T03:58:24.973Z,8
2017-08-04T03:58:46.633Z,8
2017-08-04T03:59:08.348Z,8
2017-08-04T03:59:30.021Z,8
2017-08-04T03:59:51.855Z,8
2017-08-04T04:00:13.493Z,8
2017-08-04T04:00:35.153Z,12
2017-08-04T04:00:56.846Z,12
2017-08-04T04:01:19.158Z,12
2017-08-04T04:01:40.195Z,12
2017-08-04T04:02:01.875Z,12
2017-08-04T04:02:23.490Z,12
2017-08-04T04:02:45.179Z,8
2017-08-04T04:03:06.827Z,8
2017-08-04T04:03:28.563Z,8
2017-08-04T04:03:50.276Z,12
2017-08-04T04:04:12.023Z,12
2017-08-04T04:04:33.780Z,12
2017-08-04T04:04:55.530Z,8
2017-08-04T04:05:17.230Z,8
2017-08-04T04:05:38.914Z,8
2017-08-04T04:06:00.643Z,8
2017-08-04T04:06:22.317Z,8
2017-08-04T04:06:43.999Z,12
2017-08-04T04:07:05.649Z,12
2017-08-04T04:07:27.299Z,12
2017-08-04T04:07:49.053Z,12
2017-08-04T04:08:10.726Z,12
2017-08-04T04:08:32.407Z,12
2017-08-04T04:08:54.159Z,12
2017-08-04T04:09:15.800Z,12
2017-08-04T04:09:37.474Z,12
2017-08-04T04:09:59.247Z,12
2017-08-04T04:10:20.884Z,12
2017-08-04T04:10:42.591Z,16
2017-08-04T04:11:04.234Z,12
2017-08-04T04:11:25.960Z,16
2017-08-04T04:11:47.641Z,16
2017-08-04T04:12:09.405Z,16
2017-08-04T04:12:30.989Z,12
2017-08-04T04:12:52.688Z,12
2017-08-04T04:13:14.314Z,12
2017-08-04T04:13:36.094Z,16
2017-08-04T04:13:57.742Z,16
2017-08-04T04:14:19.538Z,16
2017-08-04T04:14:41.260Z,16
2017-08-04T04:15:03.156Z,16
2017-08-04T04:15:24.829Z,16
2017-08-04T04:15:46.473Z,16
2017-08-04T04:16:08.083Z,20
2017-08-04T04:16:29.724Z,20
2017-08-04T04:16:51.374Z,20
2017-08-04T04:17:13.081Z,20
2017-08-04T04:17:34.697Z,20
2017-08-04T04:17:56.354Z,20
2017-08-04T04:18:18.062Z,20
2017-08-04T04:18:39.759Z,24
2017-08-04T04:19:01.402Z,24
2017-08-04T04:19:23.130Z,20
2017-08-04T04:19:44.792Z,24
2017-08-04T04:20:06.517Z,24
2017-08-04T04:20:28.252Z,20
2017-08-04T04:20:50.013Z,24
2017-08-04T04:21:11.775Z,24
2017-08-04T04:21:33.487Z,24
2017-08-04T04:21:55.209Z,28
2017-08-04T04:22:16.893Z,28
2017-08-04T04:22:38.575Z,32
2017-08-04T04:23:00.256Z,32
2017-08-04T04:23:21.968Z,36
2017-08-04T04:23:43.615Z,36
2017-08-04T04:24:05.273Z,36
2017-08-04T04:24:26.977Z,40
2017-08-04T04:24:48.734Z,36
2017-08-04T04:25:10.239Z,40
2017-08-04T04:25:31.959Z,40
2017-08-04T04:25:53.692Z,40
2017-08-04T04:26:15.333Z,36
2017-08-04T04:26:37.088Z,40
2017-08-04T04:26:58.650Z,40
2017-08-04T04:27:20.401Z,44
2017-08-04T04:27:42.105Z,44
2017-08-04T04:28:03.749Z,44
2017-08-04T04:28:25.513Z,44
2017-08-04T04:28:47.183Z,48
2017-08-04T04:29:08.888Z,52
2017-08-04T04:29:30.658Z,52
2017-08-04T04:29:52.366Z,48
2017-08-04T04:30:13.993Z,52
2017-08-04T04:30:35.654Z,52
2017-08-04T04:30:57.392Z,52
2017-08-04T04:31:18.996Z,60
2017-08-04T04:31:40.759Z,60
2017-08-04T04:32:02.478Z,64
2017-08-04T04:32:24.090Z,64
2017-08-04T04:32:45.812Z,60
2017-08-04T04:33:07.549Z,60
2017-08-04T04:33:29.256Z,60
2017-08-04T04:33:50.954Z,56
2017-08-04T04:34:12.739Z,60
2017-08-04T04:34:34.450Z,64
2017-08-04T04:34:56.126Z,64
2017-08-04T04:35:17.962Z,64
2017-08-04T04:35:39.691Z,64
2017-08-04T04:36:01.334Z,64
2017-08-04T04:36:23.099Z,64
2017-08-04T04:36:44.790Z,60
2017-08-04T04:37:06.626Z,60
2017-08-04T04:37:28.336Z,56
2017-08-04T04:37:50.043Z,56
2017-08-04T04:38:11.814Z,56
2017-08-04T04:38:33.581Z,56
2017-08-04T04:38:55.291Z,52
2017-08-04T04:39:16.921Z,56
2017-08-04T04:39:38.637Z,60
2017-08-04T04:40:00.307Z,60
2017-08-04T04:40:22.005Z,64
2017-08-04T04:40:43.716Z,60
2017-08-04T04:41:05.310Z,64
2017-08-04T04:41:27.065Z,64
2017-08-04T04:41:48.663Z,68
2017-08-04T04:42:10.326Z,68
2017-08-04T04:42:32.033Z,68
2017-08-04T04:42:53.685Z,68
2017-08-04T04:43:15.303Z,68
2017-08-04T04:43:36.959Z,68
2017-08-04T04:43:58.637Z,72
2017-08-04T04:44:20.419Z,76
2017-08-04T04:44:42.107Z,84
2017-08-04T04:45:03.960Z,88
2017-08-04T04:45:25.628Z,96
2017-08-04T04:45:47.278Z,96
2017-08-04T04:46:08.877Z,104
2017-08-04T04:46:30.506Z,108
2017-08-04T04:46:52.227Z,108
2017-08-04T04:47:13.965Z,108
2017-08-04T04:47:35.603Z,104
2017-08-04T04:47:57.331Z,108
2017-08-04T04:48:19.112Z,108
2017-08-04T04:48:40.789Z,108
2017-08-04T04:49:02.423Z,104
2017-08-04T04:49:24.146Z,104
2017-08-04T04:49:45.882Z,104
2017-08-04T04:50:07.697Z,100
2017-08-04T04:50:29.383Z,100
2017-08-04T04:50:51.157Z,100
2017-08-04T04:51:12.881Z,100
2017-08-04T04:51:34.720Z,100
2017-08-04T04:51:56.533Z,96
2017-08-04T04:52:18.224Z,96
2017-08-04T04:52:39.934Z,96
2017-08-04T04:53:01.656Z,100
2017-08-04T04:53:23.308Z,104
2017-08-04T04:53:44.978Z,116
2017-08-04T04:54:06.646Z,120
2017-08-04T04:54:28.364Z,124
2017-08-04T04:54:49.910Z,128
2017-08-04T04:55:11.480Z,128
2017-08-04T04:55:33.200Z,124
2017-08-04T04:55:54.768Z,124
2017-08-04T04:56:16.359Z,120
2017-08-04T04:56:38.019Z,112
2017-08-04T04:56:59.707Z,112
2017-08-04T04:57:21.293Z,104
2017-08-04T04:57:42.854Z,100
2017-08-04T04:58:04.532Z,100
2017-08-04T04:58:26.129Z,100
2017-08-04T04:58:47.824Z,104
2017-08-04T04:59:09.507Z,104
2017-08-04T04:59:31.052Z,104
2017-08-04T04:59:52.653Z,108
2017-08-04T05:00:14.307Z,108
2017-08-04T05:00:36.005Z,108
2017-08-04T05:00:57.605Z,112
2017-08-04T05:01:19.281Z,112
2017-08-04T05:01:40.966Z,108
2017-08-04T05:02:02.651Z,108
2017-08-04T05:02:24.252Z,108
2017-08-04T05:02:45.885Z,104
2017-08-04T05:03:07.516Z,104
2017-08-04T05:03:29.170Z,100
2017-08-04T05:03:50.784Z,104
2017-08-04T05:04:12.325Z,104
2017-08-04T05:04:33.937Z,108
2017-08-04T05:04:55.510Z,116
2017-08-04T05:05:17.094Z,120
2017-08-04T05:05:38.757Z,124
2017-08-04T05:06:00.428Z,132
2017-08-04T05:06:22.072Z,132
2017-08-04T05:06:43.727Z,132
2017-08-04T05:07:05.460Z,136
2017-08-04T05:07:27.096Z,140
2017-08-04T05:07:48.800Z,148
2017-08-04T05:08:10.491Z,148
2017-08-04T05:08:32.120Z,156
2017-08-04T05:08:53.796Z,156
2017-08-04T05:09:15.499Z,156
2017-08-04T05:09:37.145Z,156
2017-08-04T05:09:58.812Z,156
2017-08-04T05:10:20.431Z,156
2017-08-04T05:10:42.067Z,156
2017-08-04T05:11:03.710Z,148
2017-08-04T05:11:25.269Z,148
2017-08-04T05:11:46.819Z,140
2017-08-04T05:12:08.349Z,136
2017-08-04T05:12:30.049Z,136
2017-08-04T05:12:51.648Z,132
2017-08-04T05:13:13.261Z,132
2017-08-04T05:13:34.955Z,132
2017-08-04T05:13:56.481Z,128
2017-08-04T05:14:18.106Z,128
2017-08-04T05:14:39.780Z,124
2017-08-04T05:15:01.491Z,124
2017-08-04T05:15:23.005Z,124
2017-08-04T05:15:44.558Z,124
2017-08-04T05:16:06.172Z,120